Terminal Aerodrome Forecast
Issued by NWS Wilmington, NC

Home | Current Version | Previous Version | Text Only | Print | Product List | Glossary On
Versions: 1 2 3 4 5 6 7 8 9 10 11 12 13 14 15 16
951
FTUS42 KILM 251720
TAFILM
TAF
KILM 251720Z 2518/2618 19007KT P6SM VCTS SCT035CB SCT060
     FM252000 18010KT P6SM VCTS SCT040CB SCT080
     FM252300 21005KT P6SM SCT040 SCT250
     FM260600 05006KT P6SM SCT035 PROB30 2607/2612 5SM -TSRA
      BKN030CB
     FM261200 07009KT P6SM SCT012 SCT250=

USA.gov is the U.S. government's official web portal to all federal, state and local government web resources and services.